createdAt,value
2023-01-18T00:01:19.216Z,-3.29
2023-01-18T00:03:46.092Z,-3.29
2023-01-18T00:06:13.011Z,-3.22
2023-01-18T00:08:41.114Z,-3.18
2023-01-18T00:11:09.424Z,-3.19
2023-01-18T00:13:36.434Z,-3.23
2023-01-18T00:16:22.216Z,-3.33
2023-01-18T00:18:53.871Z,-3.30
2023-01-18T00:21:20.912Z,-3.28
2023-01-18T00:23:47.625Z,-3.26
2023-01-18T00:26:14.253Z,-3.23
2023-01-18T00:28:41.138Z,-3.26
2023-01-18T00:31:11.680Z,-3.29
2023-01-18T00:33:39.033Z,-3.30
2023-01-18T00:36:05.976Z,-3.31
2023-01-18T00:38:32.567Z,-3.27
2023-01-18T00:40:59.176Z,-3.22
2023-01-18T00:43:41.032Z,-3.18
2023-01-18T00:46:30.300Z,-3.19
2023-01-18T00:48:58.686Z,-3.19
2023-01-18T00:51:25.981Z,-3.22
2023-01-18T00:53:52.657Z,-3.29
2023-01-18T00:56:21.806Z,-3.37
2023-01-18T00:58:48.500Z,-3.39
2023-01-18T01:01:15.327Z,-3.41
2023-01-18T01:04:00.623Z,-3.43
2023-01-18T01:06:46.030Z,-3.43
2023-01-18T01:09:17.634Z,-3.40
2023-01-18T01:12:03.827Z,-3.41
2023-01-18T01:14:49.943Z,-3.44
2023-01-18T01:17:35.579Z,-3.47
2023-01-18T01:20:21.000Z,-3.50
2023-01-18T01:23:06.547Z,-3.42
2023-01-18T01:25:51.607Z,-3.37
2023-01-18T01:28:18.278Z,-3.32
2023-01-18T01:30:45.518Z,-3.29
2023-01-18T01:33:12.271Z,-3.25
2023-01-18T01:35:39.013Z,-3.22
2023-01-18T01:38:06.636Z,-3.19
2023-01-18T01:40:33.316Z,-3.15
2023-01-18T01:42:59.988Z,-3.16
2023-01-18T01:45:30.137Z,-3.18
2023-01-18T01:47:57.622Z,-3.18
2023-01-18T01:50:35.395Z,-3.22
2023-01-18T01:53:03.003Z,-3.31
2023-01-18T01:55:36.696Z,-3.31
2023-01-18T01:58:17.588Z,-3.28
2023-01-18T02:00:45.515Z,-3.21
2023-01-18T02:03:15.705Z,-3.20
2023-01-18T02:05:45.545Z,-3.18
2023-01-18T02:08:22.231Z,-3.15
2023-01-18T02:10:49.991Z,-3.14
2023-01-18T02:13:18.263Z,-3.14
2023-01-18T02:16:10.530Z,-3.13
2023-01-18T02:18:48.125Z,-3.13
2023-01-18T02:21:20.821Z,-3.18
2023-01-18T02:24:10.400Z,-3.13
2023-01-18T02:26:55.847Z,-3.15
2023-01-18T02:29:49.218Z,-3.13
2023-01-18T02:32:44.906Z,-3.09
2023-01-18T02:35:20.719Z,-3.11
2023-01-18T02:37:53.562Z,-3.15
2023-01-18T02:40:45.291Z,-3.17
2023-01-18T02:43:34.847Z,-3.19
2023-01-18T02:46:20.596Z,-3.19
2023-01-18T02:48:48.982Z,-3.16
2023-01-18T02:51:15.624Z,-3.18
2023-01-18T02:53:44.539Z,-3.16
2023-01-18T02:56:20.218Z,-3.16
2023-01-18T02:58:53.963Z,-3.23
2023-01-18T03:01:36.477Z,-3.22
2023-01-18T03:04:32.557Z,-3.22
2023-01-18T03:07:05.724Z,-3.22
2023-01-18T03:09:32.491Z,-3.17
2023-01-18T03:12:12.017Z,-3.14
2023-01-18T03:15:05.091Z,-3.06
2023-01-18T03:17:41.984Z,-3.05
2023-01-18T03:20:15.069Z,-2.99
2023-01-18T03:23:07.841Z,-2.98
2023-01-18T03:25:38.170Z,-3.00
2023-01-18T03:28:39.934Z,-2.96
2023-01-18T03:31:30.350Z,-2.94
2023-01-18T03:34:03.932Z,-2.92
2023-01-18T03:36:39.003Z,-2.97
2023-01-18T03:39:10.557Z,-2.97
2023-01-18T03:41:42.405Z,-2.91
2023-01-18T03:44:19.276Z,-2.87
2023-01-18T03:46:46.386Z,-2.79
2023-01-18T03:49:13.796Z,-2.73
2023-01-18T03:51:54.141Z,-2.77
2023-01-18T03:54:43.524Z,-2.79
2023-01-18T03:57:24.333Z,-2.83
2023-01-18T03:59:51.857Z,-2.75
2023-01-18T04:02:20.358Z,-2.74
2023-01-18T04:04:47.067Z,-2.70
2023-01-18T04:07:13.751Z,-2.68
2023-01-18T04:09:40.385Z,-2.63
2023-01-18T04:12:07.426Z,-2.60
2023-01-18T04:14:34.080Z,-2.56
2023-01-18T04:17:00.747Z,-2.57
2023-01-18T04:19:28.331Z,-2.54
2023-01-18T04:21:55.079Z,-2.52
2023-01-18T04:24:21.749Z,-2.51
2023-01-18T04:26:48.376Z,-2.50
2023-01-18T04:29:15.023Z,-2.48
2023-01-18T04:31:41.710Z,-2.51
2023-01-18T04:34:08.513Z,-2.50
2023-01-18T04:36:35.171Z,-2.48
2023-01-18T04:39:01.815Z,-2.49
2023-01-18T04:41:28.691Z,-2.48
2023-01-18T04:43:55.304Z,-2.48
2023-01-18T04:46:22.012Z,-2.44
2023-01-18T04:48:52.421Z,-2.42
2023-01-18T04:51:19.569Z,-2.44
2023-01-18T04:53:46.631Z,-2.43
2023-01-18T04:56:13.429Z,-2.40
2023-01-18T04:58:40.093Z,-2.41
2023-01-18T05:01:09.155Z,-2.37
2023-01-18T05:03:38.388Z,-2.34
2023-01-18T05:06:10.012Z,-2.32
2023-01-18T05:08:41.078Z,-2.32
2023-01-18T05:11:10.638Z,-2.28
2023-01-18T05:13:38.158Z,-2.24
2023-01-18T05:16:06.298Z,-2.25
2023-01-18T05:18:34.047Z,-2.29
2023-01-18T05:21:00.674Z,-2.36
2023-01-18T05:23:27.315Z,-2.34
2023-01-18T05:25:58.045Z,-2.30
2023-01-18T05:28:27.122Z,-2.29
2023-01-18T05:30:54.694Z,-2.27
2023-01-18T05:33:22.641Z,-2.24
2023-01-18T05:35:50.909Z,-2.24
2023-01-18T05:38:18.097Z,-2.22
2023-01-18T05:40:45.873Z,-2.18
2023-01-18T05:43:12.966Z,-2.18
2023-01-18T05:45:42.253Z,-2.15
2023-01-18T05:48:09.111Z,-2.17
2023-01-18T05:50:35.791Z,-2.18
2023-01-18T05:53:02.828Z,-2.14
2023-01-18T05:55:29.628Z,-2.12
2023-01-18T05:57:56.318Z,-2.14
2023-01-18T06:00:23.331Z,-2.14
2023-01-18T06:02:50.028Z,-2.09
2023-01-18T06:05:16.836Z,-2.07
2023-01-18T06:07:43.573Z,-2.06
2023-01-18T06:10:11.115Z,-2.05
2023-01-18T06:12:37.713Z,-2.01
2023-01-18T06:15:04.694Z,-1.99
2023-01-18T06:17:31.463Z,-1.97
2023-01-18T06:19:58.698Z,-1.93
2023-01-18T06:22:27.894Z,-1.91
2023-01-18T06:24:55.339Z,-1.91
2023-01-18T06:27:26.901Z,-1.92
2023-01-18T06:29:53.539Z,-1.88
2023-01-18T06:32:20.284Z,-1.86
2023-01-18T06:34:46.912Z,-1.82
2023-01-18T06:37:13.713Z,-1.80
2023-01-18T06:39:40.436Z,-1.77
2023-01-18T06:42:07.076Z,-1.72
2023-01-18T06:44:33.752Z,-1.68
2023-01-18T06:47:00.400Z,-1.70
2023-01-18T06:49:27.700Z,-1.73
2023-01-18T06:51:54.347Z,-1.71
2023-01-18T06:54:20.985Z,-1.69
2023-01-18T06:56:48.358Z,-1.68
2023-01-18T06:59:15.809Z,-1.70
2023-01-18T07:01:42.604Z,-1.65
2023-01-18T07:04:09.314Z,-1.65
2023-01-18T07:06:36.767Z,-1.66
2023-01-18T07:09:07.587Z,-1.62
2023-01-18T07:11:35.844Z,-1.62
2023-01-18T07:14:03.007Z,-1.62
2023-01-18T07:16:30.316Z,-1.63
2023-01-18T07:18:58.657Z,-1.67
2023-01-18T07:21:29.902Z,-1.64
2023-01-18T07:23:58.060Z,-1.61
2023-01-18T07:26:25.558Z,-1.59
2023-01-18T07:28:54.790Z,-1.59
2023-01-18T07:31:23.872Z,-1.63
2023-01-18T07:33:50.954Z,-1.69
2023-01-18T07:36:17.637Z,-1.67
2023-01-18T07:38:44.741Z,-1.64
2023-01-18T07:41:14.457Z,-1.60
2023-01-18T07:43:42.825Z,-1.56
2023-01-18T07:46:17.101Z,-1.58
2023-01-18T07:48:44.836Z,-1.55
2023-01-18T07:51:11.595Z,-1.52
2023-01-18T07:53:39.426Z,-1.50
2023-01-18T07:56:09.119Z,-1.45
2023-01-18T07:58:36.414Z,-1.44
2023-01-18T08:01:11.570Z,-1.39
2023-01-18T08:03:38.961Z,-1.35
2023-01-18T08:06:09.313Z,-1.34
2023-01-18T08:08:37.153Z,-1.35
2023-01-18T08:11:06.068Z,-1.33
2023-01-18T08:13:33.076Z,-1.35
2023-01-18T08:16:01.919Z,-1.33
2023-01-18T08:18:28.574Z,-1.29
2023-01-18T08:20:55.675Z,-1.29
2023-01-18T08:23:22.538Z,-1.24
2023-01-18T08:25:49.748Z,-1.24
2023-01-18T08:28:16.690Z,-1.17
2023-01-18T08:30:45.678Z,-1.18
2023-01-18T08:33:13.202Z,-1.13
2023-01-18T08:35:45.890Z,-1.05
2023-01-18T08:38:14.915Z,-0.98
2023-01-18T08:40:42.678Z,-0.94
2023-01-18T08:43:11.793Z,-0.92
2023-01-18T08:45:38.518Z,-0.88
2023-01-18T08:48:07.820Z,-0.87
2023-01-18T08:50:34.782Z,-0.92
2023-01-18T08:53:02.895Z,-0.86
2023-01-18T08:55:30.408Z,-0.78
2023-01-18T08:57:58.396Z,-0.77
2023-01-18T09:00:28.661Z,-0.78
2023-01-18T09:02:55.515Z,-0.75
2023-01-18T09:05:23.025Z,-0.71
2023-01-18T09:07:50.962Z,-0.69
2023-01-18T09:10:18.319Z,-0.62
2023-01-18T09:12:45.031Z,-0.57
2023-01-18T09:15:11.630Z,-0.52
2023-01-18T09:17:38.316Z,-0.49
2023-01-18T09:20:09.910Z,-0.46
2023-01-18T09:22:37.014Z,-0.42
2023-01-18T09:25:05.824Z,-0.43
2023-01-18T09:27:32.789Z,-0.47
2023-01-18T09:29:59.522Z,-0.44
2023-01-18T09:32:27.521Z,-0.44
2023-01-18T09:34:54.929Z,-0.40
2023-01-18T09:37:22.203Z,-0.39
2023-01-18T09:39:52.788Z,-0.37
2023-01-18T09:42:25.382Z,-0.32
2023-01-18T09:44:58.750Z,-0.31
2023-01-18T09:47:36.780Z,-0.34
2023-01-18T09:50:14.928Z,-0.28
2023-01-18T09:53:17.177Z,-0.24
2023-01-18T09:56:10.734Z,-0.22
2023-01-18T09:58:50.825Z,-0.22
2023-01-18T10:01:22.491Z,-0.21
2023-01-18T10:04:17.211Z,-0.18
2023-01-18T10:06:56.139Z,-0.24
2023-01-18T10:09:27.508Z,-0.24
2023-01-18T10:12:04.395Z,-0.31
2023-01-18T10:14:39.878Z,-0.35
2023-01-18T10:17:14.830Z,-0.40
2023-01-18T10:19:41.639Z,-0.35
2023-01-18T10:22:19.434Z,-0.32
2023-01-18T10:24:50.207Z,-0.22
2023-01-18T10:27:21.814Z,-0.16
2023-01-18T10:29:57.456Z,-0.13
2023-01-18T10:32:26.646Z,-0.12
2023-01-18T10:34:53.370Z,-0.08
2023-01-18T10:37:40.373Z,-0.12
2023-01-18T10:40:10.352Z,-0.16
2023-01-18T10:42:43.527Z,-0.14
2023-01-18T10:45:22.183Z,-0.10
2023-01-18T10:47:50.405Z,-0.09
2023-01-18T10:50:35.586Z,-0.05
2023-01-18T10:53:23.853Z,-0.02
2023-01-18T10:56:10.736Z,0.04
2023-01-18T10:58:55.533Z,0.10
2023-01-18T11:01:27.243Z,0.10
2023-01-18T11:04:17.268Z,0.15
2023-01-18T11:06:57.659Z,0.19
2023-01-18T11:09:55.649Z,0.24
2023-01-18T11:12:34.318Z,0.30
2023-01-18T11:15:15.984Z,0.31
2023-01-18T11:17:56.325Z,0.36
2023-01-18T11:20:45.856Z,0.38
2023-01-18T11:23:23.262Z,0.41
2023-01-18T11:25:52.822Z,0.49
2023-01-18T11:28:21.747Z,0.53
2023-01-18T11:31:06.597Z,0.65
2023-01-18T11:33:33.774Z,0.68
2023-01-18T11:36:02.925Z,0.72
2023-01-18T11:38:33.221Z,0.77
2023-01-18T11:41:25.789Z,0.81
2023-01-18T11:44:01.093Z,0.90
2023-01-18T11:46:39.062Z,0.98
2023-01-18T11:49:38.932Z,1.07
2023-01-18T11:52:17.740Z,1.05
2023-01-18T11:54:57.759Z,1.06
2023-01-18T11:57:24.425Z,1.21
2023-01-18T11:59:51.052Z,1.27
2023-01-18T12:02:36.530Z,1.18
2023-01-18T12:05:25.839Z,1.23
2023-01-18T12:08:01.537Z,1.24
2023-01-18T12:10:36.838Z,1.27
2023-01-18T12:13:21.831Z,1.35
2023-01-18T12:15:55.681Z,1.44
2023-01-18T12:18:48.841Z,1.55
2023-01-18T12:21:31.398Z,1.57
2023-01-18T12:24:16.267Z,1.63
2023-01-18T12:26:59.573Z,1.72
2023-01-18T12:29:52.916Z,1.62
2023-01-18T12:32:55.278Z,1.65
2023-01-18T12:35:37.150Z,1.63
2023-01-18T12:38:23.994Z,1.62
2023-01-18T12:41:13.490Z,1.74
2023-01-18T12:44:05.492Z,1.81
2023-01-18T12:46:51.212Z,1.78
2023-01-18T12:49:21.497Z,1.90
2023-01-18T12:51:53.298Z,1.93
2023-01-18T12:54:32.132Z,1.90
2023-01-18T12:57:01.034Z,1.89
2023-01-18T12:59:57.922Z,1.93
2023-01-18T13:02:37.000Z,1.98
2023-01-18T13:05:33.096Z,1.97
2023-01-18T13:08:17.054Z,2.07
2023-01-18T13:10:44.674Z,2.24
2023-01-18T13:13:19.965Z,2.37
2023-01-18T13:16:26.659Z,2.29
2023-01-18T13:19:07.383Z,2.35
2023-01-18T13:21:42.974Z,2.43
2023-01-18T13:24:28.202Z,2.24
2023-01-18T13:27:07.818Z,2.30
2023-01-18T13:29:34.709Z,2.28
2023-01-18T13:32:01.651Z,2.23
2023-01-18T13:34:44.961Z,2.37
2023-01-18T13:37:42.849Z,2.27
2023-01-18T13:40:39.170Z,2.10
2023-01-18T13:43:26.655Z,2.27
2023-01-18T13:46:08.611Z,2.33
2023-01-18T13:48:47.473Z,2.55
2023-01-18T13:51:39.452Z,2.59
2023-01-18T13:54:18.621Z,2.51
2023-01-18T13:57:05.319Z,2.39
2023-01-18T13:59:41.069Z,2.41
2023-01-18T14:02:42.300Z,2.50
2023-01-18T14:05:25.968Z,2.39
2023-01-18T14:08:02.662Z,2.43
2023-01-18T14:10:36.734Z,2.40
2023-01-18T14:13:06.723Z,2.32
2023-01-18T14:15:42.472Z,2.36
2023-01-18T14:18:18.451Z,2.42
2023-01-18T14:21:10.896Z,2.46
2023-01-18T14:24:15.941Z,2.38
2023-01-18T14:26:44.254Z,2.40
2023-01-18T14:29:17.875Z,2.25
2023-01-18T14:31:49.564Z,2.26
2023-01-18T14:34:38.145Z,2.36
2023-01-18T14:37:26.470Z,2.45
2023-01-18T14:40:28.471Z,2.52
2023-01-18T14:42:58.759Z,2.57
2023-01-18T14:45:29.728Z,2.48
2023-01-18T14:48:02.550Z,2.35
2023-01-18T14:50:36.678Z,2.23
2023-01-18T14:53:04.758Z,2.18
2023-01-18T14:55:33.768Z,2.17
2023-01-18T14:58:11.697Z,2.00
2023-01-18T15:00:50.532Z,1.95
2023-01-18T15:03:26.380Z,1.97
2023-01-18T15:06:17.334Z,2.03
2023-01-18T15:08:46.500Z,1.96
2023-01-18T15:11:14.096Z,1.84
2023-01-18T15:13:49.254Z,1.86
2023-01-18T15:16:21.915Z,1.82
2023-01-18T15:18:51.030Z,1.81
2023-01-18T15:21:22.530Z,1.68
2023-01-18T15:23:52.769Z,1.59
2023-01-18T15:26:34.220Z,1.61
2023-01-18T15:29:16.590Z,1.54
2023-01-18T15:32:04.864Z,1.45
2023-01-18T15:34:40.072Z,1.32
2023-01-18T15:37:12.278Z,1.14
2023-01-18T15:39:56.776Z,1.14
2023-01-18T15:42:32.684Z,1.00
2023-01-18T15:45:00.100Z,0.79
2023-01-18T15:47:38.066Z,0.75
2023-01-18T15:50:15.479Z,0.69
2023-01-18T15:52:49.035Z,0.71
2023-01-18T15:55:32.634Z,0.71
2023-01-18T15:58:07.165Z,0.67
2023-01-18T16:00:41.977Z,0.59
2023-01-18T16:03:25.513Z,0.46
2023-01-18T16:06:06.530Z,0.39
2023-01-18T16:08:33.651Z,0.34
2023-01-18T16:11:01.184Z,0.28
2023-01-18T16:13:39.360Z,0.24
2023-01-18T16:16:06.054Z,0.22
2023-01-18T16:18:32.772Z,0.13
2023-01-18T16:21:01.519Z,0.11
2023-01-18T16:23:29.362Z,0.09
2023-01-18T16:26:04.500Z,0.04
2023-01-18T16:28:33.337Z,-0.06
2023-01-18T16:31:03.404Z,-0.11
2023-01-18T16:33:30.200Z,-0.16
2023-01-18T16:35:56.893Z,-0.25
2023-01-18T16:38:23.922Z,-0.27
2023-01-18T16:40:51.403Z,-0.36
2023-01-18T16:43:17.976Z,-0.39
2023-01-18T16:45:46.563Z,-0.46
2023-01-18T16:48:21.935Z,-0.49
2023-01-18T16:50:49.552Z,-0.58
2023-01-18T16:53:17.504Z,-0.66
2023-01-18T16:55:44.827Z,-0.70
2023-01-18T16:58:16.593Z,-0.77
2023-01-18T17:01:00.328Z,-0.86
2023-01-18T17:03:27.630Z,-0.90
2023-01-18T17:05:55.503Z,-0.95
2023-01-18T17:08:22.086Z,-1.00
2023-01-18T17:10:51.272Z,-1.02
2023-01-18T17:13:18.179Z,-0.97
2023-01-18T17:15:45.619Z,-1.00
2023-01-18T17:18:22.446Z,-1.06
2023-01-18T17:20:49.248Z,-1.08
2023-01-18T17:23:16.736Z,-1.14
2023-01-18T17:25:43.673Z,-1.17
2023-01-18T17:28:15.294Z,-1.25
2023-01-18T17:30:48.382Z,-1.35
2023-01-18T17:33:18.123Z,-1.37
2023-01-18T17:35:45.019Z,-1.33
2023-01-18T17:38:22.295Z,-1.43
2023-01-18T17:40:49.634Z,-1.40
2023-01-18T17:43:32.124Z,-1.41
2023-01-18T17:46:02.925Z,-1.46
2023-01-18T17:48:29.825Z,-1.51
2023-01-18T17:50:56.611Z,-1.54
2023-01-18T17:53:23.286Z,-1.48
2023-01-18T17:55:50.105Z,-1.47
2023-01-18T17:58:16.787Z,-1.42
2023-01-18T18:00:43.522Z,-1.38
2023-01-18T18:03:10.370Z,-1.45
2023-01-18T18:05:37.178Z,-1.52
2023-01-18T18:08:04.129Z,-1.51
2023-01-18T18:10:31.170Z,-1.53
2023-01-18T18:12:58.423Z,-1.55
2023-01-18T18:15:25.415Z,-1.55
2023-01-18T18:17:52.348Z,-1.49
2023-01-18T18:20:20.251Z,-1.48
2023-01-18T18:23:05.793Z,-1.59
2023-01-18T18:25:36.878Z,-1.64
2023-01-18T18:28:07.643Z,-1.61
2023-01-18T18:30:48.384Z,-1.68
2023-01-18T18:33:16.628Z,-1.73
2023-01-18T18:35:43.403Z,-1.67
2023-01-18T18:38:10.171Z,-1.68
2023-01-18T18:40:36.937Z,-1.78
2023-01-18T18:43:03.610Z,-1.88
2023-01-18T18:45:33.966Z,-1.97
2023-01-18T18:48:01.239Z,-2.00
2023-01-18T18:50:28.512Z,-2.01
2023-01-18T18:52:55.477Z,-2.06
2023-01-18T18:55:22.272Z,-2.09
2023-01-18T18:57:49.337Z,-2.10
2023-01-18T19:00:16.476Z,-2.13
2023-01-18T19:02:43.292Z,-2.16
2023-01-18T19:05:10.974Z,-2.17
2023-01-18T19:07:38.263Z,-2.21
2023-01-18T19:10:06.509Z,-2.23
2023-01-18T19:12:33.301Z,-2.25
2023-01-18T19:14:59.992Z,-2.24
2023-01-18T19:17:30.685Z,-2.23
2023-01-18T19:19:58.276Z,-2.28
2023-01-18T19:22:25.353Z,-2.33
2023-01-18T19:24:52.030Z,-2.37
2023-01-18T19:27:18.685Z,-2.38
2023-01-18T19:29:45.415Z,-2.39
2023-01-18T19:32:12.204Z,-2.40
2023-01-18T19:34:39.333Z,-2.42
2023-01-18T19:37:06.885Z,-2.44
2023-01-18T19:39:34.985Z,-2.45
2023-01-18T19:42:02.458Z,-2.48
2023-01-18T19:44:29.720Z,-2.56
2023-01-18T19:46:57.826Z,-2.55
2023-01-18T19:49:26.445Z,-2.58
2023-01-18T19:51:54.814Z,-2.56
2023-01-18T19:54:22.091Z,-2.59
2023-01-18T19:56:48.887Z,-2.61
2023-01-18T19:59:16.160Z,-2.63
2023-01-18T20:01:43.402Z,-2.66
2023-01-18T20:04:10.987Z,-2.67
2023-01-18T20:06:38.499Z,-2.66
2023-01-18T20:09:17.830Z,-2.72
2023-01-18T20:11:45.111Z,-2.75
2023-01-18T20:14:12.309Z,-2.80
2023-01-18T20:16:39.419Z,-2.78
2023-01-18T20:19:06.409Z,-2.80
2023-01-18T20:21:33.123Z,-2.80
2023-01-18T20:24:01.033Z,-2.80
2023-01-18T20:26:36.478Z,-2.81
2023-01-18T20:29:08.794Z,-2.76
2023-01-18T20:31:37.025Z,-2.72
2023-01-18T20:34:05.420Z,-2.70
2023-01-18T20:36:34.902Z,-2.72
2023-01-18T20:39:02.332Z,-2.72
2023-01-18T20:41:29.060Z,-2.72
2023-01-18T20:43:55.739Z,-2.72
2023-01-18T20:46:22.474Z,-2.76
2023-01-18T20:48:49.717Z,-2.77
2023-01-18T20:51:18.031Z,-2.78
2023-01-18T20:53:44.853Z,-2.77
2023-01-18T20:56:27.958Z,-2.75
2023-01-18T20:58:55.354Z,-2.71
2023-01-18T21:01:22.224Z,-2.70
2023-01-18T21:03:59.003Z,-2.74
2023-01-18T21:06:26.003Z,-2.75
2023-01-18T21:08:54.291Z,-2.77
2023-01-18T21:11:23.163Z,-2.81
2023-01-18T21:13:51.308Z,-2.85
2023-01-18T21:16:18.209Z,-2.80
2023-01-18T21:18:44.987Z,-2.77
2023-01-18T21:21:11.754Z,-2.81
2023-01-18T21:23:41.822Z,-2.80
2023-01-18T21:26:12.060Z,-2.77
2023-01-18T21:28:38.882Z,-2.77
2023-01-18T21:31:06.564Z,-2.79
2023-01-18T21:33:33.832Z,-2.82
2023-01-18T21:36:13.806Z,-2.82
2023-01-18T21:38:41.378Z,-2.85
2023-01-18T21:41:26.652Z,-2.81
2023-01-18T21:44:12.805Z,-2.84
2023-01-18T21:46:44.969Z,-2.78
2023-01-18T21:49:43.297Z,-2.78
2023-01-18T21:52:36.687Z,-2.89
2023-01-18T21:55:03.408Z,-2.90
2023-01-18T21:57:30.188Z,-2.85
2023-01-18T21:59:56.951Z,-2.85
2023-01-18T22:02:23.692Z,-2.89
2023-01-18T22:05:19.610Z,-2.92
2023-01-18T22:07:46.285Z,-2.96
2023-01-18T22:10:12.959Z,-2.96
2023-01-18T22:12:39.607Z,-3.01
2023-01-18T22:15:06.751Z,-3.04
2023-01-18T22:17:33.773Z,-3.03
2023-01-18T22:20:01.727Z,-3.05
2023-01-18T22:22:28.625Z,-3.03
2023-01-18T22:24:56.568Z,-3.05
2023-01-18T22:27:23.230Z,-3.02
2023-01-18T22:29:49.948Z,-3.04
2023-01-18T22:32:16.853Z,-3.01
2023-01-18T22:34:43.489Z,-3.03
2023-01-18T22:37:10.595Z,-3.03
2023-01-18T22:39:37.295Z,-3.04
2023-01-18T22:42:04.208Z,-3.03
2023-01-18T22:44:30.898Z,-3.03
2023-01-18T22:46:57.531Z,-3.02
2023-01-18T22:49:24.208Z,-3.02
2023-01-18T22:51:50.851Z,-2.95
2023-01-18T22:54:22.289Z,-2.87
2023-01-18T22:56:48.940Z,-2.86
2023-01-18T22:59:15.759Z,-2.84
2023-01-18T23:01:42.428Z,-2.86
2023-01-18T23:04:10.484Z,-2.85
2023-01-18T23:06:46.956Z,-2.84
2023-01-18T23:09:15.946Z,-2.83
2023-01-18T23:11:42.695Z,-2.82
2023-01-18T23:14:27.951Z,-2.84
2023-01-18T23:17:13.211Z,-2.88
2023-01-18T23:19:39.950Z,-2.89
2023-01-18T23:22:09.480Z,-2.97
2023-01-18T23:24:37.013Z,-2.92
2023-01-18T23:27:06.218Z,-2.93
2023-01-18T23:29:33.143Z,-2.95
2023-01-18T23:31:59.896Z,-2.93
2023-01-18T23:34:26.534Z,-2.93
2023-01-18T23:36:53.770Z,-2.92
2023-01-18T23:39:39.068Z,-2.92
2023-01-18T23:42:24.139Z,-2.93
2023-01-18T23:45:09.311Z,-2.96
2023-01-18T23:47:54.850Z,-2.97
2023-01-18T23:50:40.600Z,-2.97
2023-01-18T23:53:30.696Z,-2.94
2023-01-18T23:55:57.953Z,-2.97
2023-01-18T23:58:25.077Z,-2.96
